RIPO2: Cimarron River Near Ripley, OK

                                SHEF ID:       RIPO2     Cimarron River near Ripley, OK
STATION TYPE:
Regulating: Stage = 20.00, Flow = 33370

PRECIP ELEVATION STAGE RIV-FLOW AIR-TEMP WIND-DIRWIND-SPEED REL-HUMID VOLTAGE BAT-LOAD
in ft ft cfs F deg mph % volt volt
Ccp-Rev Ccp-Rev Ccp-Rev Ccp-Rev Ccp-Rev Ccp-Rev Ccp-Rev Ccp-Rev Ccp-Rev Ccp-Rev
(America/Chicago)
03/16 00:00 0.00 ---- 7.42 370 92.48 ---- ---- ---- ---- 12.84
03/16 01:00 0.00 ---- 7.41 365 90.50 ---- ---- ---- ---- 12.73
03/16 02:00 0.00 ---- 7.45 382 87.80 ---- ---- ---- ---- 12.63
03/16 03:00 0.00 ---- 7.41 365 85.28 ---- ---- ---- ---- 12.55
03/16 04:00 0.00 ---- 7.42 370 82.94 ---- ---- ---- ---- 12.53
03/16 05:00 0.00 ---- 7.43 374 79.88 ---- ---- ---- ---- 12.52
03/16 06:00 0.00 ---- 7.42 370 76.64 ---- ---- ---- ---- 12.49
03/16 07:00 0.00 ---- 7.41 365 73.58 ---- ---- ---- ---- 12.47
03/16 08:00 0.00 ---- 7.42 370 70.88 ---- ---- ---- ---- 12.44
03/16 09:00 0.00 ---- 7.41 365 71.60 ---- ---- ---- ---- 12.44
03/16 10:00 0.00 ---- 7.37 349 73.94 ---- ---- ---- ---- 13.24
03/16 11:00 0.00 ---- 7.39 357 77.54 ---- ---- ---- ---- 13.81
03/16 12:00 0.00 ---- 7.41 365 82.76 ---- ---- ---- ---- 13.88
03/16 13:00 0.00 ---- 7.37 349 87.44 ---- ---- ---- ---- 13.82
03/16 14:00 0.00 ---- 7.39 357 92.48 ---- ---- ---- ---- 13.80
03/16 15:00 0.00 ---- 7.39 357 95.36 ---- ---- ---- ---- 13.82
03/16 16:00 0.00 ---- 7.37 349 98.96 ---- ---- ---- ---- 13.82
03/16 17:00 0.00 ---- 7.35 342 101.84 ---- ---- ---- ---- 13.77
03/16 18:00 0.00 ---- 7.41 365 102.74 ---- ---- ---- ---- 13.73
03/16 19:00 0.00 ---- 7.42 370 102.38 ---- ---- ---- ---- 13.72
03/16 20:00 0.00 ---- 7.41 365 98.96 ---- ---- ---- ---- 13.70
03/16 21:00 0.00 ---- 7.42 370 93.74 ---- ---- ---- ---- 13.45
03/16 22:00 0.00 ---- 7.42 370 89.78 ---- ---- ---- ---- 13.26
03/16 23:00 0.00 ---- 7.43 374 87.98 ---- ---- ---- ---- 13.10
Data processed at Tue 17Mar2026 04:02 GMT

NOTICE: If you are parsing this page

Please convert to using our Data API. Starting early 2026 we will be migrating to: https://water.usace.army.mil with modern pages rendered in JavaScript. When this migration completes you will no longer be able to scrape this page! CWMSDataAPI (CDA)

Timeseries IDs (TSIDs)

TSIDs used from left to right in the data table
RIPL.Precip-Inc.Total.1Hour.1Hour.Ccp-Rev
RIPL.Stage.Inst.1Hour.0.Ccp-Rev
RIPL.Flow.Inst.1Hour.0.Ccp-Rev
RIPL.Temp-Air.Inst.1Hour.0.Ccp-Rev
RIPL.Dir-Wind.Inst.1Hour.0.Ccp-Rev
RIPL.Speed-Wind.Inst.1Hour.0.Ccp-Rev
RIPL.%-Humidity.Inst.1Hour.0.Ccp-Rev
RIPL.Volt-Battery.Inst.1Hour.0.Ccp-Rev
RIPL.Volt-Battery Load.Inst.1Hour.0.Ccp-Rev

                            

All information presented herein is the property of the government of the United States of America and may be revised or deleted at any time without prior notice. Dissemination of this information without the expressed written consent of the Public Affairs Office, Tulsa District U.S. Army Corps of Engineers is strictly prohibited. These data are gathered electronically and, as presented, have NOT undergone any form of quality control. These data are NOT guaranteed to be valid or correct.